Portada
METAR-TAF:

METAR-TAF

Aeroports :

Sukhothai, Tailàndia

latitud: 17-14-16N, longitud: 099-49-05E, altitud: 55 m

Observació

L'informe es va fer fa 35 minuts, a les 03:00 UTC
Vent 2 kt amb direcció variable
Temperatura 27°C
Humitat 66%
Pressió 1016 hPa
Visibilitat 10 km o més
sense núvols per sota de 1500 mi sense presència de cumulonimbus.

METAR: VTPO 210300Z VRB02KT CAVOK 27/20 Q1016 NOSIG

Hora: 10:35 (03:35 UTC)

Pronòstic

L'informe es va fer fa 4 hores i 35 minuts, a les 23:00 UTC
Pronòstic vàlid del 21 a les 00 UTC al 21 a les 24 UTC
Vent 5 kt del Est
Visibilitat: 4000 m
Núvols disperses a una alçada de 2500 ft
boirina
Evolucionant progressivament
l' 21 a les 01 UTC al 21 a les 03 UTC
Visibilitat 10 km o més

TAF: VTPO 202300Z 2100/2124 09005KT 4000 BR SCT025 BECMG 2101/2103 9999 NSW

Observacions i pronòstics meteorològics de més de 4000 aeroports (METAR i TAF).

Les estacions disponibles són els punts grocs i vermells al mapa.

Posi el ratolí al punt desitjat per veure el nom de l'estació.

Feu clic per veure les observacions i els pronòstics meteorològics.

Per canviar el mapa: feu clic els botons verds amb una creu de color negre per apropar; al botó verd amb un guió per allunyar la imatge; o en les fletxes verdes per a mapes adjacents.


METAR-TAF: